Terminal Aerodrome Forecast
Issued by NWS

Home | Current Version | Previous Version | Graphics & Text | Print | Product List | Glossary On
Versions: 1 2 3 4 5 6 7 8 9 10 11 12 13 14 15 16 17 18
000
FTUS43 KICT 261122
TAFSLN
TAF
KSLN 261122Z 2612/2712 21004KT 4SM BR SCT250
      TEMPO 2612/2614 2SM BR
     FM261400 23007KT P6SM SCT250
     FM262000 34011KT P6SM OVC110
     FM270000 35013KT P6SM BKN120
     FM270400 34007KT P6SM FEW250=

USA.gov is the U.S. government's official web portal to all federal, state and local government web resources and services.